KTSP

Details ICAO KTSP
Name TEHACHAPI MUNI
Region United States
Timezone America/Los_Angeles (UTC-8.0)
Plans Departing 3
Arriving 10
Stats Elevation 4,001 ft / 1,220 m (AMSL)
Location 35.134999° -118.439218°
Runways 1
Magnetic Variation 12.244° E
Sunrise 2017-12-16 14:56:59 UTC / 2017-12-16 06:56:59 Local
Sunset 2017-12-17 00:44:53 UTC / 2017-12-16 16:44:53 Local
Advertisement - Login to hide

Runways

ID Width Length Bearing (true) Bearing (mag) Surface Threshold Offset Overrun Length
11 85 ft / 26 m 4,027 ft / 1,227 m 124.75° 112.51° Asphalt 305 ft / 93 m 0 ft / 0 m
29 85 ft / 26 m 4,027 ft / 1,227 m 304.75° 292.51° Asphalt 384 ft / 117 m 0 ft / 0 m

Map

Weather


0- 5 10 15 20 25 30 35+ Temperature / ° C

Clouds and Precipitation
Forecast for 2017-12-16 12:00 UTC. Updated 2 hours ago

Ground ~20,000 ft ~40,000 ft Winds

METAR

KTSP 161115Z AUTO 33006KT 310V010 5SM HZ FEW060 BKN070 BKN120 07/M09 A2984 RMK AO2

TAF

Not found

Frequencies

Unicom 123.00 MHz CTAF/UNICOM
Warning: Do not use this data for real-world aviation or navigation. No guarantee of current accuracy is given.